Time;durP1;ratioP1;P1;durP2;ratioP2;P2;SDS_P1;SDS_P2;PMS_P1;PMS_P2;Temp;Humidity;BMP_temperature;BMP_pressure;BME280_temperature;BME280_humidity;BME280_pressure;Samples;Min_cycle;Max_cycle;Signal;HPM_P1;HPM_P2
2021/11/07 00:00:41;;;;;;;28.77;16.13;;;;;;;7.78;100.00;101713.94;5065816;28;20103;-75
2021/11/07 00:05:53;;;;;;;30.92;17.77;;;;;;;7.75;100.00;101698.06;5064376;28;20025;-75
2021/11/07 00:11:00;;;;;;;30.30;18.77;;;;;;;7.70;100.00;101704.91;5063680;28;20025;-75
2021/11/07 00:13:26;;;;;;;34.17;20.13;;;;;;;7.68;100.00;101708.38;5065878;28;20055;-76
2021/11/07 00:15:55;;;;;;;34.38;19.90;;;;;;;7.66;100.00;101709.19;5063053;28;20547;-75
2021/11/07 00:18:24;;;;;;;31.63;18.85;;;;;;;7.71;100.00;101696.19;5066460;28;20036;-76
2021/11/07 00:25:52;;;;;;;34.22;21.90;;;;;;;7.67;100.00;101697.81;5062972;28;20048;-75
2021/11/07 00:34:25;;;;;;;34.83;21.80;;;;;;;7.60;100.00;101699.38;5063552;28;20048;-71
2021/11/07 00:36:48;;;;;;;35.17;22.40;;;;;;;7.63;100.00;101710.00;5065248;28;20033;-64
2021/11/07 00:39:22;;;;;;;34.63;24.30;;;;;;;7.61;100.00;101701.13;5062959;28;20029;-65
2021/11/07 00:46:48;;;;;;;37.28;24.10;;;;;;;7.63;100.00;101694.19;5062815;28;20052;-62
2021/11/07 00:49:20;;;;;;;37.92;24.30;;;;;;;7.65;100.00;101705.66;5065383;28;20024;-63
2021/11/07 00:56:47;;;;;;;36.75;24.30;;;;;;;7.70;100.00;101710.16;5063048;28;20068;-67
2021/11/07 01:02:03;;;;;;;38.53;25.05;;;;;;;7.72;100.00;101692.66;5062446;28;20048;-65
2021/11/07 01:04:29;;;;;;;34.47;23.10;;;;;;;7.72;100.00;101683.06;5064540;28;20418;-69
2021/11/07 01:06:55;;;;;;;35.25;24.30;;;;;;;7.71;100.00;101691.78;5062739;28;20025;-74
2021/11/07 01:09:20;;;;;;;35.88;24.85;;;;;;;7.71;100.00;101701.44;5065499;28;20371;-75
2021/11/07 01:11:46;;;;;;;37.03;24.17;;;;;;;7.71;100.00;101686.53;5061888;28;20201;-72
2021/11/07 01:14:13;;;;;;;36.17;25.35;;;;;;;7.72;100.00;101693.59;5064986;28;20028;-76
2021/11/07 01:16:40;;;;;;;34.95;24.70;;;;;;;7.75;100.00;101687.53;5063086;28;20422;-69
2021/11/07 01:19:05;;;;;;;35.60;23.60;;;;;;;7.76;100.00;101673.50;5063498;28;20025;-72
2021/11/07 01:21:35;;;;;;;35.83;25.13;;;;;;;7.75;100.00;101677.88;5063973;28;20103;-72
2021/11/07 01:24:05;;;;;;;36.42;25.13;;;;;;;7.74;100.00;101670.81;5062390;28;20037;-71
2021/11/07 01:29:18;;;;;;;36.80;25.65;;;;;;;7.75;100.00;101674.38;5062421;28;20025;-63
2021/11/07 01:31:45;;;;;;;38.00;24.92;;;;;;;7.77;100.00;101652.47;5062364;28;20067;-62
2021/11/07 01:36:53;;;;;;;37.35;26.05;;;;;;;7.76;100.00;101652.44;5061532;28;20028;-61
2021/11/07 01:42:10;;;;;;;37.55;26.70;;;;;;;7.83;100.00;101644.78;5042635;28;20155;-62
2021/11/07 01:45:06;;;;;;;39.70;27.63;;;;;;;7.82;100.00;101639.44;5041339;28;20084;-62
2021/11/07 01:47:30;;;;;;;39.22;27.40;;;;;;;7.87;100.00;101640.47;5038697;28;20040;-62
2021/11/07 01:49:56;;;;;;;40.38;26.90;;;;;;;7.84;100.00;101630.75;5039826;28;20477;-61
2021/11/07 01:52:24;;;;;;;41.63;28.98;;;;;;;7.87;100.00;101629.94;5042385;28;20032;-61
2021/11/07 01:55:03;;;;;;;42.30;29.60;;;;;;;7.89;100.00;101625.59;5038922;28;20069;-62
2021/11/07 01:57:33;;;;;;;41.30;28.55;;;;;;;7.92;100.00;101632.69;5039789;28;20057;-62
2021/11/07 02:00:06;;;;;;;42.40;28.80;;;;;;;7.94;100.00;101621.38;5041623;28;20044;-61
2021/11/07 02:02:35;;;;;;;45.42;29.08;;;;;;;8.00;100.00;101611.00;5040180;28;20064;-61
2021/11/07 02:05:02;;;;;;;43.28;29.40;;;;;;;7.99;100.00;101605.69;5040963;28;20098;-64
2021/11/07 02:07:27;;;;;;;43.90;29.88;;;;;;;7.97;100.00;101605.66;5039686;28;20036;-62
2021/11/07 02:09:52;;;;;;;41.33;29.23;;;;;;;7.99;100.00;101603.97;5042082;28;20025;-63
2021/11/07 02:12:18;;;;;;;42.63;29.48;;;;;;;7.98;100.00;101586.38;5038662;28;20030;-62
2021/11/07 02:14:44;;;;;;;42.28;28.77;;;;;;;8.00;100.00;101600.47;5041782;28;20067;-63
2021/11/07 02:17:10;;;;;;;43.70;30.95;;;;;;;7.99;100.00;101596.06;5039760;28;20098;-62
2021/11/07 02:19:36;;;;;;;43.53;30.08;;;;;;;8.02;100.00;101585.63;5055964;28;20029;-62
2021/11/07 02:22:03;;;;;;;42.45;30.17;;;;;;;8.01;100.00;101580.31;5063231;28;20044;-62
2021/11/07 02:24:28;;;;;;;45.22;30.70;;;;;;;8.03;100.00;101574.22;5061415;28;20052;-62
2021/11/07 02:27:00;;;;;;;44.40;29.38;;;;;;;8.03;100.00;101571.59;5064011;28;20424;-62
2021/11/07 02:29:28;;;;;;;45.80;32.05;;;;;;;8.03;100.00;101568.94;5061384;28;20472;-62
2021/11/07 02:31:58;;;;;;;44.20;30.60;;;;;;;8.02;100.00;101569.81;5064064;28;20017;-61
2021/11/07 02:34:25;;;;;;;47.40;31.80;;;;;;;8.07;100.00;101569.03;5061015;28;20032;-61
2021/11/07 02:36:51;;;;;;;47.38;33.30;;;;;;;8.04;100.00;101564.59;5064361;28;20028;-61
2021/11/07 02:39:18;;;;;;;44.90;31.67;;;;;;;8.07;100.00;101554.13;5060925;28;20033;-61
2021/11/07 02:41:44;;;;;;;48.35;32.33;;;;;;;8.06;100.00;101548.84;5063316;28;20476;-76
2021/11/07 02:44:10;;;;;;;45.63;29.98;;;;;;;8.11;100.00;101537.56;5061991;28;20103;-75
2021/11/07 02:46:36;;;;;;;48.88;33.70;;;;;;;8.10;100.00;101530.50;5062329;28;20021;-75
2021/11/07 02:49:04;;;;;;;49.58;34.17;;;;;;;8.08;100.00;101539.22;5062793;28;20027;-75
2021/11/07 02:51:34;;;;;;;50.78;31.83;;;;;;;8.09;100.00;101525.22;5061716;28;20024;-73
2021/11/07 02:54:03;;;;;;;54.40;35.50;;;;;;;8.06;100.00;101528.66;5064915;28;20025;-76
2021/11/07 02:56:28;;;;;;;51.00;34.42;;;;;;;8.09;100.00;101519.94;5063788;28;20045;-77
2021/11/07 02:58:54;;;;;;;52.80;35.67;;;;;;;8.15;100.00;101535.88;5067765;28;20024;-73
2021/11/07 03:01:22;;;;;;;49.90;33.67;;;;;;;8.16;100.00;101537.69;5064578;28;20036;-75
2021/11/07 03:03:49;;;;;;;48.25;33.03;;;;;;;8.17;100.00;101547.38;5064310;28;20035;-76
2021/11/07 03:06:15;;;;;;;51.20;34.58;;;;;;;8.19;100.00;101535.13;5067256;28;20027;-76
2021/11/07 03:08:42;;;;;;;47.65;32.42;;;;;;;8.20;100.00;101521.97;5065254;28;20055;-72
2021/11/07 03:11:09;;;;;;;46.63;30.63;;;;;;;8.25;100.00;101510.69;5066082;28;20029;-76
2021/11/07 03:13:35;;;;;;;46.30;31.13;;;;;;;8.22;100.00;101515.88;5066093;28;20039;-76
2021/11/07 03:16:08;;;;;;;50.10;33.83;;;;;;;8.21;100.00;101509.69;5065125;28;20044;-74
2021/11/07 03:18:36;;;;;;;50.55;32.92;;;;;;;8.31;100.00;101511.69;5066200;28;20024;-72
2021/11/07 03:21:06;;;;;;;47.75;33.33;;;;;;;8.31;100.00;101522.22;5065206;28;20021;-74
2021/11/07 03:23:35;;;;;;;46.65;32.67;;;;;;;8.30;100.00;101517.84;5066154;28;20024;-71
2021/11/07 03:26:06;;;;;;;48.58;32.75;;;;;;;8.38;100.00;101512.75;5065035;28;20044;-72
2021/11/07 03:28:32;;;;;;;44.90;30.83;;;;;;;8.44;100.00;101514.66;5066246;28;20071;-76
2021/11/07 03:34:01;;;;;;;46.08;33.00;;;;;;;8.43;100.00;101520.75;5053212;28;20065;-76
2021/11/07 03:36:32;;;;;;;47.97;31.17;;;;;;;8.42;100.00;101517.25;5053043;28;20040;-66
2021/11/07 03:38:57;;;;;;;47.30;31.92;;;;;;;8.45;100.00;101511.19;5053398;28;20032;-77
2021/11/07 03:41:23;;;;;;;48.42;33.13;;;;;;;8.43;100.00;101504.94;5053160;28;20035;-75
2021/11/07 03:43:48;;;;;;;45.10;31.00;;;;;;;8.43;100.00;101491.78;5049041;28;20072;-69
2021/11/07 03:46:15;;;;;;;48.28;31.50;;;;;;;8.42;100.00;101498.81;5053287;28;20029;-77
2021/11/07 03:48:41;;;;;;;52.75;34.70;;;;;;;8.48;100.00;101491.06;5052972;28;20029;-76
2021/11/07 03:51:11;;;;;;;48.72;32.20;;;;;;;8.52;100.00;101479.75;5052997;28;20142;-62
2021/11/07 03:53:36;;;;;;;50.08;31.55;;;;;;;8.52;100.00;101494.69;5053067;28;20100;-76
2021/11/07 03:56:02;;;;;;;51.38;33.63;;;;;;;8.52;100.00;101479.75;5052934;28;20543;-75
2021/11/07 03:58:28;;;;;;;49.47;33.08;;;;;;;8.54;100.00;101485.94;5052774;28;20497;-70
2021/11/07 04:00:53;;;;;;;51.35;32.65;;;;;;;8.53;100.00;101481.53;5052986;28;20025;-74
2021/11/07 04:03:19;;;;;;;51.90;35.03;;;;;;;8.54;100.00;101485.94;5052699;28;20438;-76
2021/11/07 04:05:44;;;;;;;51.53;34.42;;;;;;;8.52;100.00;101489.41;5051886;28;20025;-76
2021/11/07 04:08:09;;;;;;;54.83;34.45;;;;;;;8.55;100.00;101478.94;5052670;28;20108;-66
2021/11/07 04:10:36;;;;;;;52.50;32.15;;;;;;;8.61;100.00;101481.69;5064406;28;20065;-75
2021/11/07 04:13:02;;;;;;;58.00;35.60;;;;;;;8.58;100.00;101462.28;5065597;28;20532;-76
2021/11/07 04:15:27;;;;;;;59.40;36.50;;;;;;;8.55;100.00;101468.41;5063468;28;20475;-76
2021/11/07 04:17:53;;;;;;;64.53;39.95;;;;;;;8.55;100.00;101464.00;5066383;28;20024;-74
2021/11/07 04:20:19;;;;;;;62.47;39.97;;;;;;;8.58;100.00;101454.38;5063130;28;20033;-75
2021/11/07 04:22:46;;;;;;;63.08;39.35;;;;;;;8.59;100.00;101459.72;5065590;28;20102;-77
2021/11/07 04:25:12;;;;;;;62.92;36.10;;;;;;;8.59;100.00;101456.16;5063567;28;20457;-77
2021/11/07 04:27:37;;;;;;;59.38;36.90;;;;;;;8.64;100.00;101444.88;5065143;28;20029;-78
2021/11/07 04:30:05;;;;;;;61.40;36.80;;;;;;;8.61;100.00;101452.72;5064826;28;20021;-73
2021/11/07 04:32:30;;;;;;;65.93;38.95;;;;;;;8.60;100.00;101456.19;5063596;28;20025;-62
2021/11/07 04:34:56;;;;;;;66.00;40.70;;;;;;;8.58;100.00;101457.91;5066029;28;20052;-64
2021/11/07 04:37:22;;;;;;;65.50;41.38;;;;;;;8.60;100.00;101455.31;5062454;28;20074;-64
2021/11/07 04:39:48;;;;;;;66.00;40.50;;;;;;;8.62;100.00;101462.41;5065804;28;20479;-63
2021/11/07 04:42:14;;;;;;;74.88;42.80;;;;;;;8.62;100.00;101458.84;5063595;28;20055;-65
2021/11/07 04:44:39;;;;;;;65.22;40.63;;;;;;;8.64;100.00;101465.06;5064614;28;20033;-63
2021/11/07 04:47:05;;;;;;;69.40;40.33;;;;;;;8.67;100.00;101470.41;5064525;28;20418;-62
2021/11/07 04:49:31;;;;;;;64.95;39.75;;;;;;;8.67;100.00;101481.84;5063718;28;20025;-61
2021/11/07 04:51:58;;;;;;;68.05;40.50;;;;;;;8.68;100.00;101456.38;5065188;28;20036;-68
2021/11/07 04:54:24;;;;;;;62.20;39.00;;;;;;;8.66;100.00;101448.41;5062286;28;20017;-61
2021/11/07 04:56:50;;;;;;;67.97;39.80;;;;;;;8.71;100.00;101457.31;5065755;28;20029;-62
2021/11/07 04:59:15;;;;;;;68.35;41.83;;;;;;;8.73;100.00;101462.63;5062549;28;20032;-64
2021/11/07 05:01:40;;;;;;;73.13;41.05;;;;;;;8.70;100.00;101437.09;5064504;28;20046;-63
2021/11/07 05:04:07;;;;;;;72.47;43.67;;;;;;;8.75;100.00;101436.28;5063788;28;20017;-65
2021/11/07 05:06:33;;;;;;;73.10;42.42;;;;;;;8.77;100.00;101450.41;5063294;28;20103;-64
2021/11/07 05:08:58;;;;;;;71.63;41.30;;;;;;;8.84;100.00;101462.84;5065110;28;20051;-62
2021/11/07 05:11:24;;;;;;;72.45;40.30;;;;;;;8.87;100.00;101468.22;5062225;28;20132;-62
2021/11/07 05:13:49;;;;;;;71.07;40.38;;;;;;;8.89;100.00;101456.81;5062080;28;20020;-63
2021/11/07 05:16:15;;;;;;;77.38;43.45;;;;;;;8.85;100.00;101441.81;5064817;28;20032;-62
2021/11/07 05:18:41;;;;;;;80.57;47.70;;;;;;;8.87;100.00;101450.63;5062806;28;20114;-64
2021/11/07 05:21:06;;;;;;;86.22;48.53;;;;;;;8.85;100.00;101455.00;5063267;28;20029;-78
2021/11/07 05:23:32;;;;;;;84.38;47.97;;;;;;;8.87;100.00;101455.03;5064009;28;20039;-74
2021/11/07 05:25:57;;;;;;;85.95;46.53;;;;;;;8.87;100.00;101448.00;5061769;28;20049;-77
2021/11/07 05:28:23;;;;;;;82.50;45.08;;;;;;;8.88;100.00;101449.78;5065274;28;20028;-77
2021/11/07 05:30:50;;;;;;;84.03;48.10;;;;;;;8.90;100.00;101455.09;5061722;28;20468;-72
2021/11/07 05:33:17;;;;;;;89.13;48.90;;;;;;;8.88;100.00;101435.69;5064323;28;20464;-77
2021/11/07 05:35:43;;;;;;;84.55;48.22;;;;;;;8.89;100.00;101453.31;5062354;28;20025;-77
2021/11/07 05:38:08;;;;;;;94.15;51.03;;;;;;;8.95;100.00;101463.97;5063399;28;20033;-73
2021/11/07 05:40:34;;;;;;;84.82;46.83;;;;;;;8.89;100.00;101454.19;5063699;28;20025;-73
2021/11/07 05:43:00;;;;;;;90.45;45.97;;;;;;;8.92;100.00;101450.72;5062067;28;20531;-77
2021/11/07 05:45:25;;;;;;;81.88;47.97;;;;;;;8.94;100.00;101453.38;5064775;28;20032;-66
2021/11/07 05:47:50;;;;;;;78.25;45.17;;;;;;;8.91;100.00;101448.94;5061426;28;20358;-64
2021/11/07 05:50:18;;;;;;;82.45;46.72;;;;;;;8.93;100.00;101454.25;5063098;28;20036;-64
2021/11/07 05:52:44;;;;;;;86.30;47.33;;;;;;;8.94;100.00;101462.22;5062329;28;20025;-64
2021/11/07 05:55:09;;;;;;;82.93;46.88;;;;;;;8.94;100.00;101456.03;5062978;28;20353;-66
2021/11/07 05:57:35;;;;;;;86.32;45.13;;;;;;;8.91;100.00;101456.84;5063165;28;20056;-62
2021/11/07 06:00:00;;;;;;;81.47;43.00;;;;;;;8.90;100.00;101455.97;5062049;28;20036;-65
2021/11/07 06:02:26;;;;;;;84.85;44.17;;;;;;;8.86;100.00;101469.94;5064632;28;20025;-63
2021/11/07 06:04:51;;;;;;;90.07;44.38;;;;;;;8.86;100.00;101463.78;5061157;28;20025;-64
2021/11/07 06:07:17;;;;;;;85.72;43.83;;;;;;;8.86;100.00;101463.78;5064268;28;20024;-66
2021/11/07 06:09:42;;;;;;;86.18;43.88;;;;;;;8.86;100.00;101458.50;5061768;28;20510;-62
2021/11/07 06:12:09;;;;;;;78.65;41.70;;;;;;;8.88;100.00;101467.34;5062866;28;20380;-65
2021/11/07 06:14:35;;;;;;;81.30;43.15;;;;;;;8.92;100.00;101468.31;5062966;28;20387;-68
2021/11/07 06:17:01;;;;;;;83.30;42.30;;;;;;;8.91;100.00;101467.38;5061980;28;20025;-64
2021/11/07 06:19:26;;;;;;;81.50;41.70;;;;;;;8.95;100.00;101478.91;5064278;28;20498;-65
2021/11/07 06:21:53;;;;;;;84.93;40.83;;;;;;;8.96;100.00;101471.03;5060767;28;20029;-64
2021/11/07 06:24:24;;;;;;;82.03;39.97;;;;;;;8.98;100.00;101484.25;5063741;28;20037;-71
2021/11/07 06:26:50;;;;;;;79.78;43.35;;;;;;;8.98;100.00;101485.13;5060969;28;20063;-65
2021/11/07 06:29:16;;;;;;;73.95;38.33;;;;;;;8.98;100.00;101486.88;5063163;28;20020;-65
2021/11/07 06:31:42;;;;;;;63.17;33.50;;;;;;;9.01;100.00;101498.41;5061988;28;20401;-62
2021/11/07 06:34:07;;;;;;;63.40;32.70;;;;;;;8.99;100.00;101491.31;5062789;28;20108;-63
2021/11/07 06:36:33;;;;;;;58.28;28.58;;;;;;;8.97;100.00;101493.00;5063185;28;20020;-62
2021/11/07 06:38:59;;;;;;;47.03;20.20;;;;;;;8.91;100.00;101477.94;5061010;28;20066;-62
2021/11/07 06:41:25;;;;;;;44.25;20.35;;;;;;;8.85;100.00;101499.81;5064371;28;20032;-62
2021/11/07 06:43:51;;;;;;;40.35;16.98;;;;;;;8.86;100.00;101503.34;5060774;28;20524;-62
2021/11/07 06:46:17;;;;;;;40.97;17.73;;;;;;;8.90;100.00;101492.88;5063367;28;20048;-61
2021/11/07 06:48:44;;;;;;;39.72;15.52;;;;;;;8.80;100.00;101497.94;5061709;28;20102;-61
2021/11/07 06:51:10;;;;;;;38.10;14.25;;;;;;;8.69;100.00;101497.69;5062456;28;20029;-61
2021/11/07 06:53:37;;;;;;;35.97;10.35;;;;;;;8.58;100.00;101508.00;5062494;28;20025;-61
2021/11/07 06:56:04;;;;;;;35.33;9.13;;;;;;;8.60;100.00;101511.53;5061857;28;20025;-62
2021/11/07 06:58:29;;;;;;;32.67;7.80;;;;;;;8.42;100.00;101511.06;5063495;28;20032;-61
2021/11/07 07:00:54;;;;;;;31.15;7.85;;;;;;;8.38;100.00;101503.09;5060519;28;20021;-61
2021/11/07 07:03:20;;;;;;;32.08;7.50;;;;;;;8.36;100.00;101499.53;5063908;28;20372;-61
2021/11/07 07:05:45;;;;;;;30.48;7.38;;;;;;;8.37;100.00;101485.53;5061012;28;20568;-61
2021/11/07 07:08:20;;;;;;;31.85;7.35;;;;;;;8.32;100.00;101502.94;5062607;28;20035;-61
2021/11/07 07:10:52;;;;;;;34.28;7.38;;;;;;;8.21;100.00;101520.22;5061005;28;20025;-61
2021/11/07 07:13:31;;;;;;;34.67;6.97;;;;;;;8.12;100.00;101520.91;5063459;28;20055;-61
2021/11/07 07:16:08;;;;;;;32.20;6.50;;;;;;;8.12;100.00;101525.28;5060351;28;20508;-61
2021/11/07 07:18:45;;;;;;;31.15;6.00;;;;;;;8.13;100.00;101527.94;5062667;28;20063;-61
2021/11/07 07:34:11;;;;;;;32.15;6.03;;;;;;;7.90;100.00;101540.53;4970911;28;20026;-61
2021/11/07 07:36:37;;;;;;;31.33;6.18;;;;;;;7.97;100.00;101538.94;4971250;28;20505;-61
2021/11/07 07:39:05;;;;;;;30.60;5.88;;;;;;;8.08;100.00;101528.69;4970670;28;20035;-66
2021/11/07 07:41:31;;;;;;;32.38;5.50;;;;;;;8.14;99.65;101547.25;4971048;28;20035;-65
2021/11/07 07:44:02;;;;;;;30.63;5.38;;;;;;;8.18;100.00;101544.78;4973214;28;20043;-64
2021/11/07 07:46:27;;;;;;;26.67;5.47;;;;;;;8.14;100.00;101544.63;4971651;28;20039;-63
2021/11/07 07:48:54;;;;;;;30.90;5.82;;;;;;;8.16;100.00;101549.09;4973173;28;20431;-63
2021/11/07 07:51:20;;;;;;;31.17;5.63;;;;;;;8.15;100.00;101536.75;4972777;28;20035;-63
2021/11/07 07:53:46;;;;;;;30.65;5.50;;;;;;;8.22;99.24;101529.03;4973192;28;20065;-63
2021/11/07 07:56:12;;;;;;;33.40;5.78;;;;;;;8.32;97.61;101545.09;4972450;28;20078;-62
2021/11/07 07:58:38;;;;;;;30.63;5.60;;;;;;;8.37;97.55;101543.50;4972842;28;20039;-63
2021/11/07 08:01:05;;;;;;;34.80;5.70;;;;;;;8.35;96.35;101539.91;4978909;28;20041;-63
2021/11/07 08:03:31;;;;;;;29.58;5.90;;;;;;;8.38;97.77;101547.88;4991978;28;20444;-62
2021/11/07 08:05:57;;;;;;;33.95;5.88;;;;;;;8.35;97.93;101544.28;4991970;28;20038;-64
2021/11/07 08:08:22;;;;;;;32.45;5.63;;;;;;;8.41;93.78;101539.16;5043148;28;20482;-63
2021/11/07 08:10:48;;;;;;;34.40;5.72;;;;;;;8.44;93.89;101547.19;5073873;28;20028;-62
2021/11/07 08:13:14;;;;;;;27.80;5.30;;;;;;;8.44;93.97;101535.72;5074013;28;20029;-64
2021/11/07 08:15:39;;;;;;;32.00;5.53;;;;;;;8.49;95.12;101542.94;5073141;28;20059;-62
2021/11/07 08:18:04;;;;;;;31.05;5.50;;;;;;;8.55;93.01;101552.72;5072926;28;20028;-64
2021/11/07 08:20:30;;;;;;;30.10;6.00;;;;;;;8.64;92.19;101552.94;5073500;28;20020;-63
2021/11/07 08:22:56;;;;;;;27.42;4.85;;;;;;;8.74;91.14;101556.69;5073566;28;20044;-62
2021/11/07 08:25:23;;;;;;;30.33;5.30;;;;;;;8.74;92.15;101561.94;5073099;28;20116;-64
2021/11/07 08:27:52;;;;;;;29.27;5.38;;;;;;;8.81;91.12;101568.25;5073007;28;20024;-63
2021/11/07 08:30:22;;;;;;;30.85;5.60;;;;;;;8.81;91.02;101570.88;5072994;28;20024;-64
2021/11/07 08:32:48;;;;;;;29.52;5.40;;;;;;;8.73;91.12;101568.94;5073368;28;20053;-61
2021/11/07 08:35:14;;;;;;;30.58;5.47;;;;;;;8.67;94.87;101568.81;5073162;28;20024;-62
2021/11/07 08:37:54;;;;;;;30.65;5.78;;;;;;;8.67;92.44;101563.53;5072497;28;20029;-63
2021/11/07 09:07:24;;;;;;;30.23;5.57;;;;;;;9.43;87.24;101554.66;5050013;28;20056;-62
2021/11/07 09:09:57;;;;;;;30.40;5.85;;;;;;;9.51;86.42;101554.78;5050371;28;20039;-62
2021/11/07 09:12:23;;;;;;;30.48;5.47;;;;;;;9.62;86.01;101557.66;5049894;28;20029;-62
2021/11/07 09:14:48;;;;;;;33.13;5.43;;;;;;;9.60;85.93;101560.28;5050002;28;20246;-63
2021/11/07 09:17:14;;;;;;;30.17;5.20;;;;;;;9.56;85.21;101559.31;5050105;28;20029;-62
2021/11/07 09:19:41;;;;;;;28.50;5.05;;;;;;;9.79;84.46;101561.50;5048241;28;20445;-62
2021/11/07 09:22:16;;;;;;;32.75;6.05;;;;;;;9.95;83.82;101550.38;5061865;28;20052;-62
2021/11/07 09:27:18;;;;;;;26.23;5.00;;;;;;;9.89;84.62;101558.19;5062048;28;20033;-62
2021/11/07 09:29:57;;;;;;;31.55;5.30;;;;;;;9.86;83.46;101555.50;5062915;28;20029;-62
2021/11/07 09:40:07;;;;;;;28.92;5.35;;;;;;;10.04;81.27;101559.31;5071903;28;20024;-62
2021/11/07 09:42:58;;;;;;;28.55;4.93;;;;;;;9.98;82.85;101562.75;5071834;28;20031;-63
2021/11/07 09:48:10;;;;;;;28.88;5.25;;;;;;;10.80;80.39;101570.31;5071381;28;20132;-63
2021/11/07 09:50:36;;;;;;;26.13;5.13;;;;;;;11.09;76.53;101572.47;5069260;28;20031;-62
2021/11/07 09:53:03;;;;;;;25.08;4.93;;;;;;;11.08;75.80;101570.72;5071936;28;20413;-63
2021/11/07 09:55:29;;;;;;;27.55;4.80;;;;;;;10.89;75.43;101558.06;5071381;28;20028;-65
2021/11/07 09:57:58;;;;;;;28.35;5.55;;;;;;;10.45;78.18;101553.88;5071501;28;20025;-63
2021/11/07 10:00:42;;;;;;;29.05;5.32;;;;;;;10.24;80.95;101559.69;5071465;28;20025;-62
2021/11/07 10:03:12;;;;;;;26.55;4.35;;;;;;;10.34;77.87;101555.44;5065994;28;20172;-64
2021/11/07 10:05:39;;;;;;;30.70;5.18;;;;;;;10.37;79.05;101566.97;5064674;28;20024;-63
2021/11/07 10:08:07;;;;;;;28.83;4.93;;;;;;;10.90;75.89;101563.38;5071128;28;20467;-62
2021/11/07 10:10:36;;;;;;;29.80;5.25;;;;;;;11.35;73.83;101577.22;5066003;28;21434;-62
2021/11/07 10:13:11;;;;;;;28.15;5.30;;;;;;;11.39;74.85;101572.84;5071200;28;20025;-62
2021/11/07 10:15:47;;;;;;;30.38;5.47;;;;;;;10.99;74.54;101568.81;5068848;28;20090;-63
2021/11/07 10:21:28;;;;;;;30.20;5.30;;;;;;;11.00;76.67;101569.69;5048516;28;20049;-63
2021/11/07 10:24:17;;;;;;;26.35;4.43;;;;;;;11.78;73.11;101567.16;5048810;28;20033;-65
2021/11/07 10:26:46;;;;;;;27.05;5.07;;;;;;;12.10;70.97;101561.31;5047773;28;20074;-67
2021/11/07 10:29:32;;;;;;;27.05;4.32;;;;;;;11.93;70.21;101566.44;5048551;28;20064;-63
2021/11/07 10:32:05;;;;;;;25.88;4.70;;;;;;;11.86;69.85;101560.16;5048694;28;20045;-64
2021/11/07 10:35:05;;;;;;;27.63;4.70;;;;;;;12.51;69.03;101568.75;5048540;28;20029;-61
2021/11/07 10:37:44;;;;;;;27.30;4.75;;;;;;;13.30;65.44;101565.69;5042327;28;20044;-75
2021/11/07 10:54:21;;;;;;;28.38;5.20;;;;;;;10.60;74.12;101571.72;5049223;28;20056;-85
2021/11/07 10:57:14;;;;;;;31.15;5.40;;;;;;;10.67;74.40;101565.69;5049292;28;20033;-83
2021/11/07 10:59:40;;;;;;;28.88;5.78;;;;;;;10.36;75.43;101573.13;5070916;28;20428;-84
2021/11/07 11:02:35;;;;;;;27.35;5.00;;;;;;;10.51;74.80;101574.25;5067852;28;20044;-86
2021/11/07 11:05:03;;;;;;;26.73;5.05;;;;;;;10.43;74.26;101571.47;5061783;28;20106;-78
2021/11/07 11:07:30;;;;;;;31.42;6.10;;;;;;;10.34;74.09;101588.06;5061540;28;20027;-80
2021/11/07 11:10:11;;;;;;;26.48;4.85;;;;;;;10.56;75.61;101570.81;5061073;28;20025;-81
2021/11/07 11:13:05;;;;;;;32.08;5.45;;;;;;;11.31;73.89;101562.16;5061202;28;20416;-81
2021/11/07 11:15:41;;;;;;;30.27;5.25;;;;;;;11.74;70.25;101554.75;5064827;28;20028;-85
2021/11/07 11:21:35;;;;;;;27.35;5.28;;;;;;;11.67;69.79;101553.78;5018906;28;20505;-82
2021/11/07 11:24:28;;;;;;;27.55;5.15;;;;;;;12.06;70.17;101545.34;5026110;28;20026;-64
2021/11/07 11:32:25;;;;;;;27.38;4.68;;;;;;;15.23;58.01;101556.09;4998220;28;20065;-64
2021/11/07 11:37:39;;;;;;;25.45;4.97;;;;;;;14.70;56.23;101549.13;5002799;28;20105;-64
2021/11/07 11:40:20;;;;;;;26.73;4.97;;;;;;;14.69;55.78;101563.31;5003151;28;20093;-63
2021/11/07 11:45:23;;;;;;;25.65;5.10;;;;;;;13.42;60.03;101548.03;5006036;28;20037;-62
2021/11/07 11:48:04;;;;;;;25.92;4.90;;;;;;;13.04;61.47;101556.69;5002067;28;20127;-62
2021/11/07 11:50:41;;;;;;;25.38;4.75;;;;;;;12.64;59.98;101552.91;5003712;28;20073;-63
2021/11/07 11:55:56;;;;;;;28.30;5.28;;;;;;;11.50;64.58;101550.94;5006124;28;20041;-61
2021/11/07 11:58:44;;;;;;;24.92;4.53;;;;;;;11.91;65.55;101552.28;5032652;28;20098;-62
2021/11/07 12:01:28;;;;;;;24.77;4.80;;;;;;;12.58;64.15;101559.03;5046196;28;20510;-62
2021/11/07 12:06:52;;;;;;;26.27;4.63;;;;;;;12.27;62.60;101557.94;5043776;28;20175;-61
2021/11/07 12:09:39;;;;;;;26.40;4.82;;;;;;;11.89;63.37;101556.66;5046870;28;20040;-61
2021/11/07 12:12:26;;;;;;;28.10;4.57;;;;;;;11.73;63.70;101555.59;5044254;28;20025;-62
2021/11/07 12:14:59;;;;;;;25.20;4.75;;;;;;;11.35;66.58;101553.41;5043581;28;20033;-78
2021/11/07 12:17:29;;;;;;;;;;;;;;;11.61;65.18;101558.13;5046059;28;20029;-80
2021/11/07 12:19:54;;;;;;;27.17;4.82;;;;;;;11.79;66.46;101553.00;5044138;28;20020;-82
2021/11/07 12:22:31;;;;;;;26.88;4.82;;;;;;;12.71;63.14;101544.09;5046551;28;20028;-81
2021/11/07 12:25:17;;;;;;;26.55;5.05;;;;;;;13.16;61.37;101542.59;5051581;28;20063;-82
2021/11/07 12:27:52;;;;;;;26.17;4.68;;;;;;;13.31;60.59;101532.91;5062634;28;20365;-81
2021/11/07 12:30:24;;;;;;;26.58;4.65;;;;;;;13.25;60.64;101540.00;5062872;28;20476;-80
2021/11/07 12:33:00;;;;;;;27.08;5.07;;;;;;;14.33;58.58;101530.50;5065178;28;20486;-78
2021/11/07 12:35:39;;;;;;;27.70;4.97;;;;;;;15.77;56.07;101529.19;5066325;28;20509;-79
2021/11/07 12:41:13;;;;;;;24.95;4.43;;;;;;;17.15;51.08;101531.50;5062219;28;20079;-81
2021/11/07 12:43:39;;;;;;;25.50;4.90;;;;;;;16.13;51.95;101537.81;5063259;28;20047;-83
2021/11/07 12:49:13;;;;;;;26.73;5.15;;;;;;;16.56;51.90;101550.81;5063345;28;20036;-78
2021/11/07 12:51:54;;;;;;;25.38;4.32;;;;;;;16.45;50.76;101541.13;5065399;28;20058;-82
2021/11/07 12:54:22;;;;;;;25.25;4.68;;;;;;;16.34;51.31;101550.13;5064530;28;20040;-82
2021/11/07 12:56:52;;;;;;;24.05;4.35;;;;;;;16.56;49.49;101563.28;5063728;28;20029;-84
2021/11/07 12:59:26;;;;;;;26.02;4.57;;;;;;;16.17;47.94;101549.38;5064286;28;20033;-80
2021/11/07 13:02:23;;;;;;;23.50;4.50;;;;;;;15.17;50.02;101534.78;5063086;28;20032;-82
2021/11/07 13:04:57;;;;;;;22.38;4.10;;;;;;;15.00;48.38;101548.19;5064167;28;20029;-83
2021/11/07 13:07:29;;;;;;;24.83;4.25;;;;;;;14.51;49.38;101542.91;5063530;28;20081;-75
2021/11/07 13:10:08;;;;;;;24.47;4.50;;;;;;;13.88;50.66;101551.75;5064823;28;20028;-83
2021/11/07 13:12:48;;;;;;;24.63;4.07;;;;;;;13.03;53.11;101554.03;5061957;28;20017;-79
2021/11/07 13:20:56;;;;;;;32.53;5.15;;;;;;;11.69;60.12;101545.84;5062149;28;20033;-73
2021/11/07 13:28:41;;;;;;;25.10;4.45;;;;;;;15.43;49.86;101555.13;5062088;28;20080;-83
2021/11/07 13:33:44;;;;;;;26.63;4.75;;;;;;;15.18;49.46;101562.31;5062460;28;20472;-81
2021/11/07 13:36:18;;;;;;;24.95;4.90;;;;;;;13.76;53.62;101541.94;5062861;28;20032;-80
2021/11/07 13:39:03;;;;;;;21.90;4.25;;;;;;;14.08;53.50;101543.78;5061791;28;20032;-74
2021/11/07 13:41:28;;;;;;;26.33;4.45;;;;;;;14.72;51.30;101539.34;5061544;28;20087;-73
2021/11/07 13:44:09;;;;;;;25.48;4.53;;;;;;;14.55;52.55;101534.03;5064561;28;20032;-74
2021/11/07 13:46:36;;;;;;;23.27;4.78;;;;;;;15.33;49.86;101547.19;5061364;28;20025;-74
2021/11/07 13:49:06;;;;;;;26.38;4.88;;;;;;;15.60;49.69;101547.06;5064671;28;20024;-79
2021/11/07 13:51:34;;;;;;;24.05;4.90;;;;;;;15.85;48.83;101546.03;5060092;28;20033;-74
2021/11/07 13:54:04;;;;;;;26.33;4.45;;;;;;;14.86;50.46;101534.00;5061605;28;20082;-62